Time;durP1;ratioP1;P1;durP2;ratioP2;P2;SDS_P1;SDS_P2;PMS_P1;PMS_P2;Temp;Humidity;BMP_temperature;BMP_pressure;BME280_temperature;BME280_humidity;BME280_pressure;Samples;Min_cycle;Max_cycle;Signal;HPM_P1;HPM_P2
2023/01/23 00:01:04;;;;;;;25.80;18.92;;;;;;;2.76;80.98;103226.25;3610199;39;20095;-65
2023/01/23 00:03:30;;;;;;;30.80;19.67;;;;;;;2.75;80.84;103230.66;3609793;39;20409;-65
2023/01/23 00:06:04;;;;;;;27.92;19.52;;;;;;;2.73;81.02;103226.22;3608446;39;20071;-66
2023/01/23 00:08:30;;;;;;;27.98;19.52;;;;;;;2.77;80.43;103225.38;3610916;39;20059;-65
2023/01/23 00:10:56;;;;;;;28.67;19.73;;;;;;;2.69;80.26;103213.78;3605991;39;20107;-65
2023/01/23 00:13:23;;;;;;;28.60;19.38;;;;;;;2.74;81.16;103228.88;3610508;39;20047;-65
2023/01/23 00:15:48;;;;;;;29.90;18.67;;;;;;;2.68;80.96;103212.00;3611088;39;20374;-64
2023/01/23 00:18:15;;;;;;;35.63;19.63;;;;;;;2.66;80.90;103209.31;3610567;39;20054;-65
2023/01/23 00:20:42;;;;;;;28.38;19.10;;;;;;;2.70;81.01;103227.06;3605869;39;20056;-65
2023/01/23 00:23:08;;;;;;;30.25;19.50;;;;;;;2.69;81.25;103222.63;3608395;39;20063;-64
2023/01/23 00:25:35;;;;;;;33.17;20.15;;;;;;;2.71;81.13;103223.53;3609442;39;20047;-65
2023/01/23 00:28:02;;;;;;;27.52;19.40;;;;;;;2.73;81.92;103227.09;3606251;39;20459;-64
2023/01/23 00:30:28;;;;;;;34.03;20.98;;;;;;;2.75;81.10;103228.00;3608987;39;20309;-65
2023/01/23 00:32:54;;;;;;;33.08;19.83;;;;;;;2.77;80.87;103236.88;3608168;39;21354;-65
2023/01/23 00:35:21;;;;;;;31.77;20.25;;;;;;;2.77;81.18;103238.66;3608821;39;20059;-64
2023/01/23 00:37:47;;;;;;;30.35;19.90;;;;;;;2.77;81.38;103243.97;3608067;39;20059;-65
2023/01/23 00:40:12;;;;;;;29.00;18.83;;;;;;;2.76;81.58;103244.84;3609014;39;20381;-65
2023/01/23 00:42:39;;;;;;;29.15;19.02;;;;;;;2.77;81.32;103243.97;3606717;39;20271;-64
2023/01/23 00:45:05;;;;;;;33.03;19.30;;;;;;;2.76;81.42;103250.16;3606350;39;20055;-65
2023/01/23 00:47:31;;;;;;;28.83;19.40;;;;;;;2.74;80.90;103250.13;3609270;39;20051;-64
2023/01/23 00:49:57;;;;;;;29.40;19.15;;;;;;;2.77;81.87;103257.25;3608335;39;20263;-65
2023/01/23 00:52:25;;;;;;;31.10;19.90;;;;;;;2.78;81.85;103253.69;3608923;39;20388;-65
2023/01/23 00:54:50;;;;;;;29.15;18.98;;;;;;;2.79;81.79;103247.50;3607892;39;20372;-64
2023/01/23 00:57:16;;;;;;;29.48;18.85;;;;;;;2.80;81.13;103254.59;3599609;39;20136;-63
2023/01/23 00:59:42;;;;;;;25.92;19.38;;;;;;;2.81;81.94;103251.06;3609367;39;20059;-64
2023/01/23 01:02:07;;;;;;;30.13;19.90;;;;;;;2.83;81.05;103248.44;3607315;39;20047;-64
2023/01/23 01:04:33;;;;;;;30.83;20.30;;;;;;;2.83;80.76;103243.13;3608550;39;20087;-65
2023/01/23 01:06:59;;;;;;;32.65;20.13;;;;;;;2.84;81.08;103243.13;3608835;39;20108;-64
2023/01/23 01:09:24;;;;;;;28.42;19.02;;;;;;;2.81;81.61;103240.44;3608450;39;20091;-65
2023/01/23 01:11:50;;;;;;;29.52;18.80;;;;;;;2.84;80.86;103250.22;3608563;39;20051;-65
2023/01/23 01:14:17;;;;;;;28.13;19.38;;;;;;;2.84;81.12;103243.13;3609836;39;20062;-64
2023/01/23 01:16:45;;;;;;;28.58;18.15;;;;;;;2.84;80.85;103245.78;3608492;39;20351;-65
2023/01/23 01:19:13;;;;;;;34.22;19.33;;;;;;;2.84;80.86;103252.88;3601916;39;20043;-65
2023/01/23 01:21:41;;;;;;;31.23;19.30;;;;;;;2.81;80.70;103243.09;3608513;39;20051;-65
2023/01/23 01:24:08;;;;;;;31.77;19.55;;;;;;;2.58;81.11;103204.81;3598112;39;20059;-65
2023/01/23 01:26:35;;;;;;;29.38;19.38;;;;;;;2.65;81.69;103225.25;3607004;39;20081;-64
2023/01/23 01:29:01;;;;;;;31.10;18.80;;;;;;;2.81;81.51;103247.53;3606348;39;20055;-64
2023/01/23 01:31:27;;;;;;;30.13;19.17;;;;;;;2.78;81.81;103251.94;3608758;39;20056;-65
2023/01/23 01:33:52;;;;;;;30.85;19.25;;;;;;;2.84;81.38;103255.53;3605823;39;20066;-64
2023/01/23 01:36:21;;;;;;;25.65;18.15;;;;;;;2.86;81.81;103264.41;3609268;39;20081;-65
2023/01/23 01:38:47;;;;;;;31.25;19.40;;;;;;;2.84;81.14;103258.19;3609007;39;20057;-65
2023/01/23 01:41:15;;;;;;;33.15;19.45;;;;;;;2.71;81.06;103241.25;3608641;39;20298;-65
2023/01/23 01:43:41;;;;;;;26.38;19.13;;;;;;;2.85;81.74;103259.94;3608816;39;20077;-65
2023/01/23 01:46:20;;;;;;;27.92;19.33;;;;;;;2.85;81.32;103268.81;3607727;39;20093;-65
2023/01/23 01:49:25;;;;;;;30.90;19.20;;;;;;;2.85;80.85;103263.50;3606028;39;20055;-65
2023/01/23 01:51:56;;;;;;;31.70;18.77;;;;;;;2.83;81.28;103267.91;3594909;39;20055;-66
2023/01/23 01:54:42;;;;;;;32.03;18.63;;;;;;;2.80;81.76;103267.91;3608858;39;20070;-65
2023/01/23 01:57:30;;;;;;;25.67;17.90;;;;;;;2.80;81.32;103262.59;3609057;39;20051;-65
2023/01/23 02:00:09;;;;;;;30.88;18.98;;;;;;;2.81;81.58;103260.81;3609615;39;20077;-65
2023/01/23 02:02:39;;;;;;;29.20;18.45;;;;;;;2.82;81.45;103258.16;3606176;39;20128;-65
2023/01/23 02:05:12;;;;;;;31.33;19.42;;;;;;;2.53;81.20;103197.69;3605235;39;20064;-65
2023/01/23 02:07:40;;;;;;;32.45;18.38;;;;;;;2.83;81.55;103265.25;3609264;39;20124;-65
2023/01/23 02:10:08;;;;;;;36.53;18.38;;;;;;;2.83;81.83;103259.97;3607649;39;20051;-65
2023/01/23 02:12:35;;;;;;;30.15;19.10;;;;;;;2.82;81.23;103258.16;3607871;39;20063;-67
2023/01/23 02:15:06;;;;;;;29.35;19.42;;;;;;;2.81;82.09;103253.72;3604412;39;20452;-64
2023/01/23 02:17:35;;;;;;;28.95;18.83;;;;;;;2.79;81.90;103251.06;3604290;39;20055;-65
2023/01/23 02:20:23;;;;;;;37.38;19.10;;;;;;;2.81;82.05;103250.19;3604933;39;20043;-65
2023/01/23 02:23:11;;;;;;;28.90;17.80;;;;;;;2.84;81.96;103255.53;3605743;39;20305;-65
2023/01/23 02:25:53;;;;;;;27.48;18.48;;;;;;;2.84;82.00;103251.09;3607046;39;20353;-64
2023/01/23 02:28:19;;;;;;;29.02;18.45;;;;;;;2.86;81.43;103244.03;3611105;39;20050;-65
2023/01/23 02:30:45;;;;;;;27.67;19.02;;;;;;;2.88;81.82;103254.66;3609489;39;20047;-65
2023/01/23 02:33:21;;;;;;;28.75;19.42;;;;;;;2.89;81.57;103254.69;3609122;39;20051;-65
2023/01/23 02:35:47;;;;;;;35.55;20.40;;;;;;;2.88;81.81;103255.56;3610170;39;20063;-64
2023/01/23 02:38:13;;;;;;;31.75;19.25;;;;;;;2.88;81.27;103247.59;3614634;39;20043;-64
2023/01/23 02:40:41;;;;;;;30.60;18.38;;;;;;;2.90;81.73;103259.13;3611242;39;20043;-66
2023/01/23 02:43:17;;;;;;;27.88;18.48;;;;;;;2.69;81.63;103229.69;3606150;39;20051;-65
2023/01/23 02:45:44;;;;;;;28.98;18.67;;;;;;;2.85;81.66;103247.56;3603302;39;20048;-65
2023/01/23 02:48:10;;;;;;;33.13;19.38;;;;;;;2.89;81.24;103254.69;3608943;39;20125;-65
2023/01/23 02:50:35;;;;;;;31.92;19.65;;;;;;;2.90;82.02;103251.16;3602912;39;20047;-65
2023/01/23 02:53:01;;;;;;;31.63;19.38;;;;;;;2.91;81.10;103242.31;3607140;39;20390;-65
2023/01/23 02:55:31;;;;;;;30.15;19.08;;;;;;;2.93;81.59;103253.84;3608695;39;20051;-65
2023/01/23 03:00:46;;;;;;;32.50;18.95;;;;;;;2.91;81.30;103255.59;3606621;39;20054;-66
2023/01/23 03:03:12;;;;;;;35.50;19.65;;;;;;;2.58;82.00;103199.53;3602864;39;20382;-65
2023/01/23 03:05:38;;;;;;;27.92;19.13;;;;;;;2.89;81.66;103248.50;3607607;39;20378;-65
2023/01/23 03:08:04;;;;;;;27.95;19.92;;;;;;;2.85;81.29;103244.91;3607639;39;20069;-65
2023/01/23 03:10:30;;;;;;;31.42;19.00;;;;;;;2.90;81.69;103263.56;3609886;39;20047;-65
2023/01/23 03:13:02;;;;;;;28.33;19.17;;;;;;;2.90;81.40;103267.09;3606174;39;20473;-65
2023/01/23 03:15:29;;;;;;;31.13;18.98;;;;;;;2.90;81.53;103261.78;3605913;39;20074;-65
2023/01/23 03:17:55;;;;;;;31.77;18.67;;;;;;;2.91;81.40;103262.66;3606873;39;20056;-65
2023/01/23 03:20:25;;;;;;;31.48;18.73;;;;;;;2.88;81.76;103263.53;3606919;39;20317;-66
2023/01/23 03:22:52;;;;;;;31.38;19.30;;;;;;;2.90;81.42;103261.78;3607197;39;20050;-65
2023/01/23 03:25:18;;;;;;;30.63;18.10;;;;;;;2.89;81.77;103262.66;3607447;39;20167;-66
2023/01/23 03:27:44;;;;;;;31.50;19.00;;;;;;;2.87;82.32;103255.56;3608776;39;20051;-66
2023/01/23 03:30:13;;;;;;;30.52;20.20;;;;;;;2.90;82.01;103269.75;3606825;39;20082;-65
2023/01/23 03:32:40;;;;;;;30.33;19.00;;;;;;;2.92;81.52;103264.47;3606772;39;20062;-66
2023/01/23 03:35:09;;;;;;;28.85;19.27;;;;;;;2.93;82.27;103269.78;3606662;39;20309;-66
2023/01/23 03:37:35;;;;;;;27.15;18.85;;;;;;;2.93;82.32;103272.44;3598178;39;20049;-64
2023/01/23 03:42:47;;;;;;;27.33;18.42;;;;;;;2.91;82.04;103263.56;3609043;39;20395;-65
2023/01/23 03:45:12;;;;;;;30.42;19.25;;;;;;;2.89;82.38;103270.63;3609973;39;20055;-65
2023/01/23 03:47:38;;;;;;;29.83;18.92;;;;;;;2.91;81.77;103268.88;3607438;39;20278;-65
2023/01/23 03:50:05;;;;;;;30.55;20.00;;;;;;;2.92;82.50;103269.78;3609329;39;20054;-65
2023/01/23 03:52:31;;;;;;;29.63;19.10;;;;;;;2.92;82.37;103264.47;3608649;39;20054;-65
2023/01/23 03:54:56;;;;;;;30.83;20.20;;;;;;;2.89;81.87;103264.44;3606978;39;20134;-65
2023/01/23 03:57:22;;;;;;;28.20;19.20;;;;;;;2.91;81.68;103263.56;3604022;39;20135;-65
2023/01/23 03:59:48;;;;;;;30.90;19.02;;;;;;;2.95;81.75;103275.09;3611581;39;20050;-66
2023/01/23 04:02:13;;;;;;;28.95;19.13;;;;;;;2.93;81.97;103275.09;3609582;39;20079;-65
2023/01/23 04:04:39;;;;;;;30.77;18.75;;;;;;;2.94;81.97;103275.97;3607785;39;20059;-65
2023/01/23 04:07:05;;;;;;;32.45;19.95;;;;;;;2.93;81.94;103267.13;3606573;39;20297;-65
2023/01/23 04:09:31;;;;;;;33.35;19.05;;;;;;;2.90;81.61;103253.81;3607592;39;20120;-64
2023/01/23 04:11:59;;;;;;;31.17;19.08;;;;;;;2.94;82.18;103257.38;3604756;39;20337;-65
2023/01/23 04:14:29;;;;;;;35.15;21.63;;;;;;;2.94;82.56;103265.34;3610833;39;20423;-64
2023/01/23 04:16:54;;;;;;;30.55;20.33;;;;;;;2.93;82.07;103266.25;3608066;39;20063;-64
2023/01/23 04:19:20;;;;;;;31.88;20.08;;;;;;;2.93;82.87;103267.13;3607056;39;20125;-65
2023/01/23 04:21:47;;;;;;;29.27;18.90;;;;;;;2.95;82.52;103265.38;3606391;39;20317;-64
2023/01/23 04:24:16;;;;;;;29.77;19.60;;;;;;;2.95;82.32;103265.38;3608283;39;20047;-66
2023/01/23 04:26:42;;;;;;;26.63;19.60;;;;;;;2.96;82.19;103264.50;3606450;39;20051;-66
2023/01/23 04:29:08;;;;;;;32.25;19.77;;;;;;;2.96;82.11;103267.16;3605793;39;20051;-64
2023/01/23 04:31:34;;;;;;;29.13;19.33;;;;;;;2.99;81.82;103271.63;3607562;39;20043;-64
2023/01/23 04:33:59;;;;;;;34.00;19.67;;;;;;;2.98;82.08;103275.13;3609501;39;20080;-65
2023/01/23 04:36:25;;;;;;;32.88;19.40;;;;;;;2.99;82.14;103275.16;3609480;39;20063;-67
2023/01/23 04:38:51;;;;;;;32.03;20.25;;;;;;;3.00;82.49;103274.25;3595235;39;20055;-67
2023/01/23 04:41:23;;;;;;;30.48;19.50;;;;;;;3.02;81.76;103276.97;3607089;39;20062;-67
2023/01/23 04:43:49;;;;;;;30.27;19.55;;;;;;;2.96;82.37;103268.94;3606346;39;20046;-66
2023/01/23 04:46:15;;;;;;;32.83;20.60;;;;;;;2.95;82.15;103268.03;3608141;39;20391;-66
2023/01/23 04:48:41;;;;;;;31.48;18.83;;;;;;;3.00;81.64;103278.69;3606458;39;20093;-67
2023/01/23 04:51:06;;;;;;;31.67;20.38;;;;;;;2.81;81.70;103250.19;3606017;39;20062;-67
2023/01/23 04:53:32;;;;;;;34.28;19.42;;;;;;;3.00;82.85;103279.59;3608222;39;20090;-67
2023/01/23 04:55:58;;;;;;;38.95;21.38;;;;;;;2.98;82.57;103289.31;3607741;39;20062;-68
2023/01/23 04:58:24;;;;;;;31.33;19.75;;;;;;;2.99;82.05;103287.56;3605926;39;20103;-66
2023/01/23 05:00:50;;;;;;;30.70;20.88;;;;;;;2.99;81.88;103291.09;3604329;39;20047;-67
2023/01/23 05:03:17;;;;;;;30.63;19.50;;;;;;;2.90;82.68;103272.41;3605590;39;20132;-67
2023/01/23 05:05:43;;;;;;;29.35;20.05;;;;;;;3.00;82.36;103298.19;3608067;39;20120;-66
2023/01/23 05:08:10;;;;;;;30.98;20.30;;;;;;;2.76;82.23;103250.16;3606724;39;20413;-67
2023/01/23 05:10:36;;;;;;;31.77;20.55;;;;;;;3.02;82.55;103299.09;3608125;39;20309;-67
2023/01/23 05:13:03;;;;;;;33.95;19.90;;;;;;;3.03;82.12;103300.88;3609503;39;20051;-64
2023/01/23 05:15:29;;;;;;;32.08;19.67;;;;;;;3.03;82.53;103300.88;3608751;39;20059;-65
2023/01/23 05:17:54;;;;;;;33.08;20.30;;;;;;;3.01;82.27;103297.31;3606089;39;20148;-65
2023/01/23 05:20:22;;;;;;;32.95;20.63;;;;;;;3.03;82.79;103298.22;3608252;39;20054;-64
2023/01/23 05:22:52;;;;;;;32.65;20.23;;;;;;;3.05;82.62;103297.34;3606506;39;20054;-65
2023/01/23 05:25:25;;;;;;;35.80;19.67;;;;;;;3.06;82.14;103296.47;3608720;39;20059;-65
2023/01/23 05:27:51;;;;;;;33.13;19.88;;;;;;;3.06;81.94;103300.00;3607220;39;20066;-65
2023/01/23 05:30:20;;;;;;;30.45;20.23;;;;;;;3.09;82.05;103304.47;3612020;39;20061;-65
2023/01/23 05:32:46;;;;;;;33.80;21.52;;;;;;;3.09;82.46;103299.16;3604288;39;20067;-65
2023/01/23 05:35:13;;;;;;;31.83;19.58;;;;;;;3.07;82.06;103307.09;3607540;39;20056;-65
2023/01/23 05:37:39;;;;;;;32.47;20.23;;;;;;;3.10;81.88;103303.59;3608528;39;20057;-66
2023/01/23 05:40:10;;;;;;;31.42;20.58;;;;;;;3.11;82.53;103308.00;3607013;39;20051;-65
2023/01/23 05:42:35;;;;;;;35.15;21.00;;;;;;;3.11;82.76;103300.03;3607657;39;20451;-65
2023/01/23 05:45:01;;;;;;;28.67;18.90;;;;;;;3.14;82.18;103306.31;3608784;39;20047;-66
2023/01/23 05:47:27;;;;;;;31.75;19.95;;;;;;;3.15;82.24;103304.53;3605871;39;20555;-66
2023/01/23 05:49:53;;;;;;;29.15;19.55;;;;;;;3.15;81.80;103315.16;3605188;39;20298;-65
2023/01/23 05:52:20;;;;;;;32.80;20.15;;;;;;;3.16;82.31;103316.94;3605011;39;20316;-66
2023/01/23 05:54:46;;;;;;;32.53;20.33;;;;;;;3.14;82.49;103319.59;3604648;39;20324;-66
2023/01/23 05:57:12;;;;;;;32.95;20.67;;;;;;;3.12;81.74;103320.44;3608197;39;20055;-66
2023/01/23 05:59:37;;;;;;;41.60;22.70;;;;;;;3.11;82.80;103313.31;3604659;39;20069;-66
2023/01/23 06:02:03;;;;;;;35.67;21.27;;;;;;;3.12;82.96;103320.44;3594172;39;20146;-65
2023/01/23 06:04:29;;;;;;;29.60;20.08;;;;;;;3.11;82.14;103319.56;3606553;39;20444;-66
2023/01/23 06:06:54;;;;;;;33.28;20.38;;;;;;;3.12;82.36;103326.66;3606676;39;20060;-66
2023/01/23 06:09:20;;;;;;;32.20;20.35;;;;;;;3.13;82.39;103336.38;3603812;39;20055;-65
2023/01/23 06:11:46;;;;;;;33.55;20.80;;;;;;;3.13;83.12;103332.84;3606761;39;20058;-66
2023/01/23 06:14:11;;;;;;;32.63;21.35;;;;;;;3.13;82.74;103327.53;3604895;39;20070;-66
2023/01/23 06:16:37;;;;;;;33.35;20.05;;;;;;;3.12;82.23;103326.66;3603651;39;20070;-66
2023/01/23 06:19:02;;;;;;;36.08;21.88;;;;;;;2.84;82.34;103288.28;3607006;39;20067;-65
2023/01/23 06:21:28;;;;;;;34.38;21.65;;;;;;;3.12;82.73;103336.38;3608631;39;20065;-66
2023/01/23 06:23:53;;;;;;;32.53;21.95;;;;;;;3.13;82.73;103335.50;3611191;39;20332;-66
2023/01/23 06:26:19;;;;;;;33.75;20.98;;;;;;;3.12;82.00;103337.28;3610092;39;20063;-66
2023/01/23 06:28:45;;;;;;;34.90;21.08;;;;;;;3.07;82.91;103327.47;3605728;39;20063;-65
2023/01/23 06:31:10;;;;;;;36.50;21.02;;;;;;;3.14;82.61;103339.94;3605215;39;20054;-65
2023/01/23 06:33:36;;;;;;;36.40;21.20;;;;;;;3.13;83.27;103327.53;3607440;39;20069;-66
2023/01/23 06:36:05;;;;;;;35.63;20.70;;;;;;;2.92;82.28;103297.22;3606540;39;20055;-66
2023/01/23 06:38:32;;;;;;;35.28;22.25;;;;;;;3.13;83.17;103335.50;3604147;39;20333;-66
2023/01/23 06:40:58;;;;;;;31.95;20.55;;;;;;;3.13;82.78;103336.38;3603469;39;20083;-66
2023/01/23 06:43:25;;;;;;;35.47;21.73;;;;;;;3.00;82.76;103310.56;3598376;39;20059;-65
2023/01/23 06:45:50;;;;;;;34.00;20.50;;;;;;;3.16;83.34;103335.53;3605807;39;20062;-66
2023/01/23 06:48:17;;;;;;;40.00;21.35;;;;;;;3.17;82.50;103338.22;3606364;39;20385;-66
2023/01/23 06:50:43;;;;;;;33.40;21.08;;;;;;;2.90;82.68;103288.34;3611212;39;20058;-65
2023/01/23 06:53:14;;;;;;;34.60;21.17;;;;;;;3.15;82.35;103331.09;3603937;39;20053;-66
2023/01/23 06:55:39;;;;;;;36.20;20.95;;;;;;;3.19;82.29;103338.22;3604936;39;20092;-66
2023/01/23 06:58:06;;;;;;;34.65;20.52;;;;;;;3.19;82.23;103341.75;3606412;39;20075;-66
2023/01/23 07:00:35;;;;;;;33.58;21.42;;;;;;;3.19;82.21;103343.53;3606561;39;20081;-65
2023/01/23 07:03:04;;;;;;;35.40;21.67;;;;;;;3.21;83.14;103352.44;3603927;39;20052;-65
2023/01/23 07:05:34;;;;;;;32.20;20.10;;;;;;;3.22;82.61;103355.09;3604591;39;20079;-64
2023/01/23 07:08:00;;;;;;;29.25;19.95;;;;;;;3.22;82.30;103352.41;3607475;39;20058;-66
2023/01/23 07:10:26;;;;;;;33.03;19.45;;;;;;;3.23;82.79;103350.66;3609751;39;20047;-66
2023/01/23 07:12:52;;;;;;;32.30;20.52;;;;;;;3.25;82.32;103354.22;3607563;39;20788;-65
2023/01/23 07:15:17;;;;;;;30.20;20.27;;;;;;;3.26;82.69;103361.31;3605228;39;20055;-65
2023/01/23 07:17:43;;;;;;;31.88;21.23;;;;;;;3.25;82.12;103362.19;3606840;39;20436;-65
2023/01/23 07:20:10;;;;;;;30.55;20.25;;;;;;;3.19;82.24;103354.16;3605468;39;20051;-65
2023/01/23 07:22:35;;;;;;;32.65;20.42;;;;;;;3.29;83.01;103369.31;3607208;39;20281;-66
2023/01/23 07:25:01;;;;;;;35.75;20.85;;;;;;;3.30;82.74;103362.22;3606647;39;20161;-65
2023/01/23 07:27:26;;;;;;;31.20;18.95;;;;;;;3.33;82.91;103367.56;3607074;39;20100;-65
2023/01/23 07:29:52;;;;;;;29.52;20.60;;;;;;;3.34;82.05;103370.25;3607525;39;20074;-66
2023/01/23 07:32:18;;;;;;;30.45;21.05;;;;;;;3.35;82.81;103381.78;3607557;39;20063;-65
2023/01/23 07:34:43;;;;;;;29.95;20.17;;;;;;;3.35;82.58;103380.00;3605838;39;20058;-65
2023/01/23 07:37:09;;;;;;;29.15;19.77;;;;;;;3.34;82.19;103386.22;3606996;39;20051;-66
2023/01/23 07:39:34;;;;;;;31.13;20.08;;;;;;;3.33;82.08;103387.09;3609280;39;20316;-65
2023/01/23 07:42:00;;;;;;;29.10;20.02;;;;;;;2.97;82.07;103319.41;3606728;39;20054;-65
2023/01/23 07:44:26;;;;;;;32.42;21.05;;;;;;;3.34;82.10;103388.00;3606850;39;21716;-66
2023/01/23 07:46:51;;;;;;;28.63;19.98;;;;;;;3.34;82.06;103394.19;3604216;39;20081;-65
2023/01/23 07:49:17;;;;;;;30.00;19.88;;;;;;;3.35;81.96;103387.97;3606974;39;20457;-63
2023/01/23 07:51:43;;;;;;;34.72;20.42;;;;;;;3.22;82.23;103378.13;3608313;39;20058;-64
2023/01/23 07:54:09;;;;;;;33.72;20.90;;;;;;;3.32;81.84;103392.38;3609908;39;20134;-63
2023/01/23 07:56:34;;;;;;;35.83;20.38;;;;;;;3.32;82.13;103400.34;3607783;39;20039;-64
2023/01/23 07:59:00;;;;;;;32.83;20.85;;;;;;;2.69;81.99;103286.34;3608048;39;20067;-64
2023/01/23 08:01:26;;;;;;;29.85;20.17;;;;;;;2.79;81.77;103311.25;3608252;39;20071;-64
2023/01/23 08:03:52;;;;;;;28.45;20.50;;;;;;;3.37;81.81;103415.50;3602080;39;20429;-65
2023/01/23 08:06:18;;;;;;;32.50;20.20;;;;;;;3.34;82.26;103402.16;3606026;39;20809;-65
2023/01/23 08:08:47;;;;;;;30.38;20.80;;;;;;;3.39;82.39;103408.41;3606259;39;20063;-65
2023/01/23 08:11:13;;;;;;;31.35;20.50;;;;;;;2.78;81.92;103293.53;3607802;39;20063;-65
2023/01/23 08:13:39;;;;;;;31.17;20.40;;;;;;;3.45;81.87;103410.22;3605492;39;20063;-64
2023/01/23 08:16:06;;;;;;;30.55;19.98;;;;;;;3.45;82.21;103404.91;3605074;39;20123;-64
2023/01/23 08:18:32;;;;;;;30.40;20.40;;;;;;;3.45;81.55;103411.13;3607615;39;20373;-64
2023/01/23 08:21:01;;;;;;;30.42;20.48;;;;;;;3.46;81.85;103412.91;3604005;39;20409;-65
2023/01/23 08:23:31;;;;;;;29.02;20.42;;;;;;;3.42;81.91;103411.09;3603119;39;20113;-64
2023/01/23 08:26:04;;;;;;;32.70;19.45;;;;;;;3.51;82.11;103412.06;3605493;39;20057;-64
2023/01/23 08:28:31;;;;;;;32.05;20.52;;;;;;;3.50;81.63;103413.84;3604727;39;20054;-64
2023/01/23 08:31:03;;;;;;;30.35;19.95;;;;;;;3.49;81.93;103410.28;3602343;39;20043;-65
2023/01/23 08:33:28;;;;;;;32.20;20.35;;;;;;;3.49;81.82;103412.94;3606060;39;20087;-64
2023/01/23 08:35:57;;;;;;;27.88;19.45;;;;;;;3.51;82.10;103420.91;3610309;39;20290;-65
2023/01/23 08:38:24;;;;;;;28.85;19.35;;;;;;;3.31;82.04;103387.94;3608616;39;20525;-65
2023/01/23 08:40:54;;;;;;;29.15;19.40;;;;;;;3.55;82.11;103419.19;3608135;39;20055;-65
2023/01/23 08:43:20;;;;;;;29.17;19.42;;;;;;;3.24;81.50;103368.41;3605049;39;20379;-65
2023/01/23 08:45:56;;;;;;;30.30;19.77;;;;;;;3.57;81.91;103430.72;3606876;39;20043;-64
2023/01/23 08:48:25;;;;;;;29.70;19.50;;;;;;;3.48;82.21;103411.16;3605218;39;20093;-67
2023/01/23 08:50:58;;;;;;;28.35;19.42;;;;;;;3.61;81.82;103430.75;3603817;39;20090;-65
2023/01/23 08:53:24;;;;;;;31.77;20.85;;;;;;;3.63;82.07;103441.44;3605186;39;20412;-64
2023/01/23 08:55:49;;;;;;;31.65;20.15;;;;;;;3.64;81.85;103440.53;3606377;39;20055;-64
2023/01/23 08:58:15;;;;;;;27.50;18.55;;;;;;;3.66;81.84;103445.00;3608699;39;20055;-68
2023/01/23 09:00:41;;;;;;;28.55;19.08;;;;;;;3.66;81.85;103439.69;3606921;39;20055;-65
2023/01/23 09:03:08;;;;;;;30.58;21.00;;;;;;;3.51;81.48;103404.09;3607545;39;20080;-65
2023/01/23 09:05:35;;;;;;;29.35;19.65;;;;;;;3.70;81.71;103437.94;3603878;39;20095;-65
2023/01/23 09:08:00;;;;;;;30.52;20.05;;;;;;;3.69;81.60;103438.84;3605121;39;20053;-66
2023/01/23 09:10:26;;;;;;;27.80;19.85;;;;;;;3.70;81.35;103437.94;3604290;39;20051;-66
2023/01/23 09:12:55;;;;;;;29.67;19.50;;;;;;;3.70;81.12;103444.16;3605508;39;20055;-66
2023/01/23 09:15:23;;;;;;;29.50;20.50;;;;;;;3.72;81.45;103441.53;3607461;39;20055;-66
2023/01/23 09:17:49;;;;;;;29.85;19.38;;;;;;;3.75;81.77;103441.53;3600482;39;20348;-67
2023/01/23 09:20:16;;;;;;;29.92;19.85;;;;;;;3.77;81.00;103439.75;3605923;39;20489;-67
2023/01/23 09:22:41;;;;;;;27.95;19.60;;;;;;;3.80;80.92;103439.78;3604463;39;20054;-68
2023/01/23 09:25:07;;;;;;;30.77;19.73;;;;;;;3.82;80.94;103442.50;3604864;39;20050;-65
2023/01/23 09:27:33;;;;;;;27.17;19.77;;;;;;;3.85;80.91;103440.75;3605019;39;20058;-65
2023/01/23 09:29:59;;;;;;;34.15;23.77;;;;;;;3.89;80.96;103439.88;3605819;39;20058;-65
2023/01/23 09:32:24;;;;;;;34.13;22.15;;;;;;;3.79;81.23;103406.09;3609354;39;20065;-65
2023/01/23 09:34:50;;;;;;;33.65;21.08;;;;;;;3.97;80.66;103421.31;3606292;39;20069;-65
2023/01/23 09:37:16;;;;;;;28.75;19.80;;;;;;;4.05;80.57;103421.38;3608186;39;20055;-65
2023/01/23 09:39:43;;;;;;;28.77;18.70;;;;;;;3.81;80.80;103375.09;3608386;39;20366;-64
2023/01/23 09:42:32;;;;;;;27.20;18.55;;;;;;;4.17;79.83;103429.44;3607276;39;20043;-65
2023/01/23 09:45:05;;;;;;;24.55;18.15;;;;;;;4.22;79.86;103432.13;3605636;39;20184;-66
2023/01/23 09:47:46;;;;;;;25.30;17.73;;;;;;;4.24;79.35;103444.56;3605403;39;20062;-65
2023/01/23 09:50:25;;;;;;;26.92;18.90;;;;;;;4.27;78.81;103436.59;3606742;39;20050;-65
2023/01/23 09:53:07;;;;;;;27.05;18.50;;;;;;;4.25;79.00;103446.38;3606327;39;20072;-65
2023/01/23 09:55:49;;;;;;;26.05;17.35;;;;;;;4.26;78.99;103453.47;3605236;39;20063;-65
2023/01/23 09:58:27;;;;;;;24.42;17.83;;;;;;;4.27;78.91;103463.22;3605522;39;20076;-65
2023/01/23 10:00:53;;;;;;;27.00;19.77;;;;;;;4.26;78.53;103461.47;3605122;39;20063;-65
2023/01/23 10:03:23;;;;;;;31.83;20.83;;;;;;;4.18;78.58;103449.84;3607117;39;20266;-65
2023/01/23 10:06:15;;;;;;;26.10;18.30;;;;;;;4.17;78.86;103446.31;3606683;39;20055;-66
2023/01/23 10:09:11;;;;;;;28.02;17.85;;;;;;;4.26;78.99;103460.56;3608694;39;20055;-65
2023/01/23 10:12:04;;;;;;;25.23;16.73;;;;;;;3.92;79.08;103407.09;3603678;39;20065;-66
2023/01/23 10:15:23;;;;;;;24.65;16.98;;;;;;;4.20;79.03;103456.09;3608538;39;20051;-65
2023/01/23 10:18:31;;;;;;;24.13;16.67;;;;;;;4.23;78.87;103455.22;3605619;39;20402;-66
2023/01/23 10:21:23;;;;;;;24.10;17.65;;;;;;;4.28;79.00;103454.38;3603985;39;20065;-66
2023/01/23 10:24:02;;;;;;;25.90;17.40;;;;;;;4.30;78.88;103447.28;3609016;39;20086;-67
2023/01/23 10:26:45;;;;;;;24.50;17.15;;;;;;;4.35;78.81;103461.53;3605072;39;20091;-66
2023/01/23 10:29:22;;;;;;;24.85;17.45;;;;;;;4.35;78.78;103464.19;3605917;39;20051;-66
2023/01/23 10:32:00;;;;;;;23.52;17.08;;;;;;;4.34;78.07;103465.03;3606081;39;20130;-67
2023/01/23 10:35:10;;;;;;;24.40;17.58;;;;;;;4.34;78.60;103461.50;3609769;39;20629;-66
2023/01/23 10:38:00;;;;;;;21.95;16.55;;;;;;;4.31;78.47;103457.03;3606999;39;20054;-66
2023/01/23 10:43:19;;;;;;;24.17;16.90;;;;;;;4.38;78.79;103458.00;3608411;39;20115;-68
2023/01/23 10:45:47;;;;;;;24.13;17.40;;;;;;;4.41;78.30;103456.22;3609658;39;20050;-67
2023/01/23 10:48:31;;;;;;;23.88;17.63;;;;;;;4.42;78.54;103460.66;3607798;39;20063;-67
2023/01/23 10:50:58;;;;;;;;;;;;;;;4.44;78.57;103452.72;3608464;39;20359;-67
2023/01/23 10:53:24;;;;;;;22.17;15.77;;;;;;;4.46;78.07;103458.03;3600032;39;19936;-67
2023/01/23 10:55:56;;;;;;;25.15;16.77;;;;;;;4.47;78.75;103455.34;3607434;39;20059;-66
2023/01/23 10:58:41;;;;;;;23.70;16.40;;;;;;;4.49;77.87;103452.72;3604834;39;20051;-66
2023/01/23 11:01:28;;;;;;;23.25;16.45;;;;;;;4.46;78.27;103442.94;3605928;39;20062;-66
2023/01/23 11:03:53;;;;;;;21.52;15.60;;;;;;;4.54;78.13;103450.97;3605405;39;20421;-66
2023/01/23 11:06:24;;;;;;;24.25;16.45;;;;;;;4.57;77.62;103451.00;3606983;39;20062;-67
2023/01/23 11:08:59;;;;;;;21.70;16.05;;;;;;;4.62;77.73;103454.56;3612798;39;20050;-66
2023/01/23 11:11:29;;;;;;;22.42;15.88;;;;;;;4.64;77.70;103451.03;3609858;39;20051;-66
2023/01/23 11:14:20;;;;;;;23.10;16.35;;;;;;;4.67;77.71;103444.81;3608042;39;20057;-66
2023/01/23 11:17:14;;;;;;;22.60;16.85;;;;;;;4.69;77.59;103448.38;3604095;39;20206;-66
2023/01/23 11:19:44;;;;;;;26.10;16.33;;;;;;;4.74;77.84;103449.28;3610994;39;20059;-66
2023/01/23 11:22:42;;;;;;;24.80;17.15;;;;;;;4.76;77.50;103451.97;3609462;39;20316;-66
2023/01/23 11:25:35;;;;;;;23.85;15.75;;;;;;;4.77;76.78;103443.97;3590953;39;20102;-66
2023/01/23 11:28:44;;;;;;;22.25;15.30;;;;;;;4.79;76.70;103446.63;3609016;39;20083;-66
2023/01/23 11:31:19;;;;;;;20.63;15.65;;;;;;;4.78;76.69;103451.09;3605685;39;20039;-66
2023/01/23 11:34:23;;;;;;;21.02;15.38;;;;;;;4.80;76.80;103452.00;3608083;39;20549;-67
2023/01/23 11:37:21;;;;;;;21.02;15.88;;;;;;;4.71;76.66;103419.97;3600813;39;20310;-67